Terminal Aerodrome Forecast
Issued by NWS

Home | Current Version | Previous Version | Text Only | Print | Product List | Glossary On
Versions: 1 2 3 4 5 6 7 8 9 10 11 12 13 14 15 16 17 18 19 20 21 22 23 24 25 26 27 28 29 30
000
FTPA31 PHFO 301136
TAFHNY
TAF
PHNY 301136Z 3012/3112 04012KT P6SM FEW025 SCT045 BKN200
     FM302000 05017G25KT P6SM SCT025 SCT045
     FM310200 05012KT P6SM VCSH SCT025 BKN045=

USA.gov is the U.S. government's official web portal to all federal, state and local government web resources and services.